OISY  Yasouj Airport

Add Bookmark

Iran

Status
Operational
Latitude Longitude
30° 42' 1" N 51° 32' 42" E
30.700500 51.545101
Local (DST + 5) UTC (GMT + 4)
Dec 19, 2014 05:55 Dec 19, 2014 14:25
Sunrise-Sunset Local UTC
Begin Civil Twilight 06:28 02:58
Sunrise 06:54 03:24
Sunset 05:07 13:37
End Civil Twilight 05:33 14:03

Current Weather

METAR Observed VFR
OISY 191400Z 10006KT CAVOK 09/M02 Q1025 Fri, Dec 19, 2014 @ 14:00 UTC
(25 Minutes ago)
Visual Flight Rules
Wind Visibility Clouds Conditions
100° at 6 knots (11 kph) 10 km or more
  • Clear skies
  • No significant weather
Temperatures Readings Precipitation
Current Temp 9°C (48°F)
Dewpoint -2°C (28°F)
Humidity 46%
Altimeter 30.27"Hg
Sea Level Pressure 1025mb
Field Elevation 5941.6'
None Recorded

24 Hour Weather History

Loading
-

24 Hour Weather Graphs

Loading
-

CheckWX.com is intended as a tool to help pilots better visualize weather data. It is not intended as a substitute for an official weather briefing obtained from a Flight Service Station. CheckWX.com does not meet the FAA requirements for an official pre-flight weather briefing. Therefore, it's important that pilots still call and obtain an official FSS pre-flight weather briefing.